createdAt,value
2018-12-25T19:48:12.947Z,103271.08
2018-12-25T19:49:15.115Z,103267.08
2018-12-25T19:50:17.263Z,103268.41
2018-12-25T19:51:19.598Z,103271.09
2018-12-25T19:52:21.680Z,103268.42
2018-12-25T19:53:23.840Z,103267.53
2018-12-25T19:54:26.101Z,103268.42
2018-12-25T19:55:28.258Z,103265.33
2018-12-25T19:56:30.407Z,103267.55
2018-12-25T19:57:32.572Z,103259.59
2018-12-25T19:58:34.927Z,103258.70
2018-12-25T20:00:38.360Z,103257.81
2018-12-25T20:02:42.036Z,103258.70
2018-12-25T20:07:14.871Z,103249.90
2018-12-25T20:11:07.806Z,103248.16
2018-12-25T20:13:58.776Z,103246.83
2018-12-25T20:15:07.639Z,103246.39
2018-12-25T20:18:41.192Z,103242.42
2018-12-25T20:19:46.760Z,103243.75
2018-12-25T20:22:10.238Z,103243.75
2018-12-25T20:23:14.740Z,103245.55
2018-12-25T20:24:21.276Z,103249.55
2018-12-25T20:25:25.675Z,103246.02
2018-12-25T20:26:33.424Z,103248.22
2018-12-25T20:27:46.991Z,103247.79
2018-12-25T20:31:05.420Z,103242.91
2018-12-25T20:32:15.086Z,103249.12
2018-12-25T20:34:33.515Z,103238.16
2018-12-25T20:36:56.996Z,103235.78
2018-12-25T20:39:15.290Z,103233.88
2018-12-25T20:40:34.748Z,103236.53
2018-12-25T20:42:58.032Z,103238.28
2018-12-25T20:45:24.343Z,103242.21
2018-12-25T20:47:35.134Z,103243.08
2018-12-25T20:51:46.510Z,103246.91
2018-12-25T20:54:31.503Z,103242.19
2018-12-25T20:56:46.326Z,103243.08
2018-12-25T20:58:55.723Z,103249.36
2018-12-25T21:02:24.647Z,103248.48
2018-12-25T21:04:49.057Z,103253.80
2018-12-25T21:05:56.760Z,103253.34
2018-12-25T21:07:05.429Z,103246.21
2018-12-25T21:13:34.875Z,103251.06
2018-12-25T21:15:58.493Z,103247.55
2018-12-25T21:20:07.432Z,103248.51
2018-12-25T21:25:35.056Z,103248.38
2018-12-25T21:28:05.795Z,103248.92
2018-12-25T21:30:11.431Z,103236.55
2018-12-25T21:31:14.721Z,103242.30
2018-12-25T21:32:19.575Z,103233.86
2018-12-25T21:33:22.821Z,103237.85
2018-12-25T21:38:36.574Z,103235.64
2018-12-25T21:40:48.565Z,103233.77
2018-12-25T21:43:56.785Z,103237.31
2018-12-25T21:47:05.296Z,103231.08
2018-12-25T21:52:18.439Z,103233.27
2018-12-25T21:53:23.681Z,103239.42
2018-12-25T21:55:29.398Z,103237.27
2018-12-25T21:56:32.699Z,103235.53
2018-12-25T21:57:36.280Z,103233.84
2018-12-25T21:59:41.928Z,103231.58
2018-12-25T22:01:47.600Z,103230.65
2018-12-25T22:05:08.383Z,103226.66
2018-12-25T22:06:11.724Z,103229.68
2018-12-25T22:07:14.952Z,103228.62
2018-12-25T22:12:27.879Z,103225.63
2018-12-25T22:13:31.238Z,103224.30
2018-12-25T22:16:39.277Z,103223.89
2018-12-25T22:17:42.553Z,103222.41
2018-12-25T22:20:50.955Z,103223.89
2018-12-25T22:21:54.152Z,103224.32
2018-12-25T22:27:07.088Z,103221.66
2018-12-25T22:28:10.375Z,103217.11
2018-12-25T22:29:13.661Z,103216.73
2018-12-25T22:30:16.890Z,103213.21
2018-12-25T22:32:22.580Z,103208.38
2018-12-25T22:35:30.676Z,103210.67
2018-12-25T22:36:34.113Z,103207.06
2018-12-25T22:37:37.566Z,103214.67
2018-12-25T22:38:41.124Z,103212.45
2018-12-25T22:42:51.833Z,103211.98
2018-12-25T22:44:57.457Z,103205.67
2018-12-25T22:46:00.701Z,103203.50
2018-12-25T22:47:03.936Z,103196.38
2018-12-25T22:52:16.871Z,103196.40
2018-12-25T22:54:22.514Z,103191.53
2018-12-25T22:55:25.800Z,103193.22
2018-12-25T22:56:28.993Z,103192.43
2018-12-25T22:57:32.261Z,103196.38
2018-12-25T22:58:35.546Z,103191.96
2018-12-25T23:00:41.192Z,103196.91
2018-12-25T23:02:46.828Z,103195.52
2018-12-25T23:04:52.464Z,103192.94
2018-12-25T23:05:55.760Z,103186.64
2018-12-25T23:06:59.042Z,103193.84
2018-12-25T23:09:05.829Z,103189.84
2018-12-25T23:10:09.090Z,103197.35
2018-12-25T23:13:17.143Z,103194.58
2018-12-25T23:19:32.459Z,103187.54
2018-12-25T23:22:40.510Z,103190.70
2018-12-25T23:24:46.462Z,103187.92
2018-12-25T23:28:57.092Z,103181.71
2018-12-25T23:31:02.920Z,103184.39
2018-12-25T23:33:08.837Z,103190.33
2018-12-25T23:34:12.107Z,103185.08
2018-12-25T23:36:18.585Z,103187.43
2018-12-25T23:38:24.327Z,103184.39
2018-12-25T23:39:27.633Z,103188.80
2018-12-25T23:40:30.897Z,103182.63
2018-12-25T23:41:34.279Z,103181.38
2018-12-25T23:43:46.687Z,103180.91
2018-12-25T23:44:50.069Z,103172.94
2018-12-25T23:45:53.277Z,103171.63
2018-12-25T23:46:56.531Z,103174.29
2018-12-25T23:52:09.768Z,103160.61
